Flight Track Log - Related Links

Times and Time Zones

All times are in EDT time to prevent confusion due to time zone crossing. See the N913CS flight status page for this flight to view local times or setup timezone preferences in your user account.

Time Position Orientation Groundspeed Altitude Reporting Facility
EDT Latitude Longitude Course Direction KTS km/h feet Rate Location/Type
Fri 13:09:31 36.1000 -86.7333 270° West 186 344 3.900  Level Nashville TRACON
Fri 13:10:16 36.1047 -86.7767 278° West 197 365 6.400 3.477 Climbing Memphis Center
Fri 13:11:18 36.1322 -86.8472 296° West 221 409 10.100 2.661 Climbing Memphis Center
Fri 13:12:20 36.1650 -86.9344 295° West 265 491 11.900 1.984 Climbing Memphis Center
Fri 13:13:22 36.2028 -87.0381 294° West 313 579 14.200 1.984 Climbing Memphis Center
Fri 13:14:24 36.2408 -87.1406 295° West 319 591 16.000 1.887 Climbing Memphis Center
Fri 13:15:26 36.2817 -87.2656 292° West 329 610 18.100 1.887 Climbing Memphis Center
Fri 13:16:28 36.2964 -87.3800 279° West 330 612 19.900 1.742 Climbing Memphis Center
Fri 13:17:30 36.3150 -87.4950 281° West 332 615 21.700 1.728 Climbing Memphis Center
Fri 13:18:33 36.3600 -87.6003 298° West 343 636 23.500 1.728 Climbing Memphis Center
Fri 13:19:35 36.4064 -87.7028 299° West 343 636 25.300 1.742 Climbing Memphis Center
Fri 13:20:37 36.4431 -87.8083 293° West 336 623 27.100 1.742 Climbing Memphis Center
Fri 13:21:39 36.4583 -87.9211 280° West 333 616 28.900 1.548 Climbing Memphis Center
Fri 13:22:41 36.4800 -88.0547 281° West 333 616 30.300 1.113 Climbing Memphis Center
Fri 13:23:43 36.4964 -88.1561 281° West 340 629 31.200 1.258 Climbing Memphis Center
Fri 13:24:45 36.5189 -88.2933 282° West 340 629 32.900 1.306 Climbing Memphis Center
Fri 13:25:47 36.5369 -88.4044 281° West 332 615 33.900 1.016 Climbing Memphis Center
Fri 13:26:49 36.5553 -88.5164 282° West 332 615 35.000 1.016 Climbing Memphis Center
Fri 13:27:51 36.5728 -88.6269 281° West 330 612 36.000 968 Climbing Memphis Center
Fri 13:28:53 36.5908 -88.7339 282° West 321 594 37.000 919 Climbing Memphis Center
Fri 13:29:55 36.6078 -88.8394 281° West 317 587 37.900 484 Climbing Memphis Center
Fri 13:30:57 36.6281 -88.9667 281° West 315 583 38.000 48 Climbing Memphis Center
Fri 13:32:00 36.6461 -89.0775 282° West 323 599 38.000  Level Memphis Center
Fri 13:33:02 36.6625 -89.1894 280° West 327 605 38.000  Level Memphis Center
Fri 13:34:04 36.6794 -89.2989 281° West 327 605 38.000  Level Memphis Center
Fri 13:35:06 36.6975 -89.4089 282° West 327 605 38.000  Level Memphis Center
Fri 13:36:08 36.7172 -89.5403 281° West 327 605 38.000  Level Memphis Center
Fri 13:37:10 36.7339 -89.6497 281° West 327 605 38.000  Level Memphis Center
Fri 13:38:12 36.7506 -89.7608 281° West 327 605 38.000  Level Memphis Center
Fri 13:39:14 36.7672 -89.8714 281° West 327 605 38.000  Level Memphis Center
Fri 13:40:16 36.7842 -89.9833 281° West 327 605 38.000  Level Memphis Center
Fri 13:41:18 36.8039 -90.1183 280° West 327 605 38.000  Level Memphis Center
Fri 13:42:21 36.8211 -90.2303 281° West 327 605 38.000  Level Memphis Center
Fri 13:43:23 36.8375 -90.3422 280° West 328 607 38.000  Level Memphis Center
Fri 13:44:25 36.8533 -90.4556 280° West 328 607 38.000  Level Memphis Center
Fri 13:45:27 36.8689 -90.5694 280° West 329 610 38.000  Level Memphis Center
Fri 13:46:29 36.8853 -90.6822 280° West 330 612 38.000  Level Memphis Center
Fri 13:47:31 36.9044 -90.8172 280° West 330 612 38.000  Level Memphis Center
Fri 13:48:33 36.9214 -90.9294 281° West 330 612 38.000  Level Memphis Center
Fri 13:49:35 36.9364 -91.0428 279° West 330 612 38.000  Level Memphis Center
Fri 13:50:37 36.9528 -91.1550 280° West 330 612 38.000  Level Memphis Center
Fri 13:51:39 36.9678 -91.2700 279° West 330 612 38.000  Level Memphis Center
Fri 13:52:41 36.9822 -91.3856 279° West 331 613 38.000  Level Memphis Center
Fri 13:53:44 37.0031 -91.5197 281° West 331 613 38.000  Level Memphis Center
Fri 13:54:46 37.0178 -91.6344 279° West 331 613 38.000  Level Memphis Center
Fri 13:55:48 37.0331 -91.7494 279° West 332 615 38.000  Level Memphis Center
Fri 13:56:50 37.0486 -91.8658 280° West 332 615 38.000  Level Memphis Center
Fri 13:57:52 37.0633 -91.9808 279° West 332 615 38.000  Level Memphis Center
Fri 13:58:54 37.0789 -92.0953 280° West 332 615 38.000  Level Memphis Center
Fri 13:59:56 37.0939 -92.2106 279° West 332 615 38.000  Level Memphis Center
Fri 14:01:24 37.1183 -92.3956 279° West 333 616 38.000  Level Kansas City Center
Fri 14:02:27 37.1328 -92.5117 279° West 333 616 38.000  Level Kansas City Center
Fri 14:03:29 37.1475 -92.6275 279° West 333 616 38.000  Level Kansas City Center
Fri 14:04:31 37.1614 -92.7425 279° West 333 616 38.000  Level Kansas City Center
Fri 14:05:33 37.1764 -92.8572 279° West 333 616 38.000  Level Kansas City Center
Fri 14:06:35 37.1903 -92.9742 279° West 333 616 38.000  Level Kansas City Center
Fri 14:07:37 37.2053 -93.0925 279° West 338 626 38.000  Level Kansas City Center
Fri 14:08:39 37.2225 -93.2328 279° West 338 626 38.000  Level Kansas City Center
Fri 14:09:41 37.2364 -93.3511 278° West 339 628 38.000  Level Kansas City Center
Fri 14:10:43 37.2514 -93.4703 279° West 340 629 38.000  Level Kansas City Center
Fri 14:11:45 37.2661 -93.5892 279° West 342 634 38.000  Level Kansas City Center
Fri 14:12:47 37.2794 -93.7072 278° West 342 634 38.000  Level Kansas City Center
Fri 14:13:49 37.2931 -93.8239 278° West 341 631 38.000  Level Kansas City Center
Fri 14:14:51 37.3058 -93.9433 278° West 341 631 38.000  Level Kansas City Center
Fri 14:15:54 37.3214 -94.0853 278° West 341 631 38.000  Level Kansas City Center
Fri 14:16:56 37.3325 -94.1917 278° West 341 631 38.000  Level Kansas City Center
Fri 14:17:58 37.3464 -94.3108 278° West 341 631 38.000  Level Kansas City Center
Fri 14:19:00 37.3614 -94.4531 278° West 341 631 38.000  Level Kansas City Center
Fri 14:20:02 37.3750 -94.5708 278° West 342 634 38.000  Level Kansas City Center
Fri 14:21:04 37.3881 -94.6906 278° West 342 634 38.000  Level Kansas City Center
Fri 14:22:06 37.4006 -94.8111 277° West 346 641 38.000  Level Kansas City Center
Fri 14:23:08 37.4131 -94.9325 277° West 349 647 38.000  Level Kansas City Center
Fri 14:24:10 37.4264 -95.0531 278° West 349 647 38.000 -194 Level Kansas City Center
Fri 14:25:12 37.4400 -95.1950 277° West 348 644 37.600 -387 Descending Kansas City Center
Fri 14:26:14 37.4525 -95.3133 278° West 347 642 37.200 -528 Descending Kansas City Center
Fri 14:27:17 37.4642 -95.4283 277° West 340 629 36.500 -816 Descending Kansas City Center
Fri 14:28:19 37.4758 -95.5456 277° West 339 628 35.500 -1.065 Descending Kansas City Center
Fri 14:29:21 37.4881 -95.6639 277° West 339 628 34.300 -1.403 Descending Kansas City Center
Fri 14:30:23 37.4997 -95.7822 277° West 340 629 32.600 -1.984 Descending Kansas City Center
Fri 14:31:25 37.5131 -95.9275 277° West 348 644 30.200 -2.129 Descending Kansas City Center
Fri 14:32:27 37.5253 -96.0497 277° West 349 647 28.200 -2.177 Descending Kansas City Center
Fri 14:33:29 37.5381 -96.1739 277° West 352 652 25.700 -2.177 Descending Kansas City Center
Fri 14:34:31 37.5481 -96.3078 275° West 373 690 23.700 -2.661 Descending Kansas City Center
Fri 14:35:33 37.5606 -96.4328 277° West 363 673 20.200 -3.711 Descending Kansas City Center
Fri 14:35:47 37.5642 -96.4728 277° West 358 663 19.000 -3.290 Descending Kansas City Center
Fri 14:36:35 37.5717 -96.5542 277° West 351 650 16.800 -3.404 Descending Kansas City Center
Fri 14:37:31 37.5842 -96.6836 277° West 342 634 13.100 -3.677 Descending Kansas City Center
Fri 14:37:37 37.5842 -96.6967 270° West 344 637 13.000 -1.082 Descending Kansas City Center
Fri 14:38:32 37.5839 -96.8025 270° West 335 621 12.000 -1.065 Descending Kansas City Center
Fri 14:38:39 37.5822 -96.8139 260° West 338 626 11.900 -1.364 Descending Kansas City Center
Fri 14:39:38 37.5800 -96.9272 269° West 332 615 10.500 -1.548 Descending Kansas City Center
Fri 14:39:41 37.5753 -96.9339 228° Southwest 335 621 10.300 -2.400 Descending Kansas City Center
Fri 14:40:33 37.5556 -97.0183 254° West 284 526 8.300 -2.419 Descending Kansas City Center
Fri 14:40:43 37.5503 -97.0361 249° West 288 533 7.800 -1.973 Descending Kansas City Center
Fri 14:41:46 37.5258 -97.1308 252° West 278 515 5.900 -1.373 Descending Kansas City Center
Fri 14:42:41 37.5039 -97.2142 252° West 270 501 5.100 -774 Descending Kansas City Center
Fri 14:42:48 37.5011 -97.2208 242° Southwest 275 509 5.100 -100 Level Kansas City Center
Fri 14:43:41 37.5103 -97.3000 278° West 255 472 5.000 -290 Descending Kansas City Center
Fri 14:43:50 37.5153 -97.3122 297° West 256 475 4.800 -655 Descending Kansas City Center
Fri 14:44:36 37.5394 -97.3617 302° West 238 441 4.400 -581 Descending Kansas City Center
Fri 14:44:52 37.5439 -97.3850 284° West 232 430 4.200 -1.180 Descending Kansas City Center
Fri 14:45:37 37.5572 -97.4353 289° West 179 332 3.200 -1.161 Descending Kansas City Center
Fri 14:45:54 37.5628 -97.4464 302° West 190 352 3.000 -689 Descending Kansas City Center
Fri 14:46:38 37.5942 -97.4481 358° North 141 261 2.500 -581 Descending Kansas City Center
Fri 14:46:56 37.6036 -97.4433 22° Northeast 141 261 2.400 -778 Descending Kansas City Center
Fri 14:47:32 37.6225 -97.4358 17° North 107 198 1.800 -774 Descending Kansas City Center
Fri 14:47:58 37.6347 -97.4300 21° North 123 229 1.600 -341 Descending Kansas City Center
Fri 14:49:00 37.6622 -97.4172 20° North 123 229 1.300 -290 Descending Kansas City Center
Fri 14:50:00 37.6499 -97.4331 226° Southwest  Level Estimated
Fri 14:57:00 37.6499 -97.4331 North  Level Estimated

Login

Don't have an account? Register now (free) for customized features, flight alerts, and more!